Maersk Dayton — DDSC2 — position and weather

sailwx.info

Track history (hours):
 
Tides and Currents Weather Stations Pressure Air Temp Water Temp Dewpoint Dewpoint Depression Visibility Wind Speed Wind Dir Waves Ship Positions

Maersk Dayton

Last reported at 2015-Jul-29 00:33 UTC. Time now 2015-Jul-29 00:38 UTC.
Position N 51°26' E 002°39'.

Length 281 m; beam 32.2 m; draft 12.5 m.

Type: Cargo ship. MMSI: 218024000.

Date/timePositionNaut miles runAvg speedWind from/ knotsBaromVisibWave heightAir tempDewpointWater temp
2015-Jul-29 00:33N 51°26' E 002°39'0 0.0
2015-Jul-28 23:33N 51°26' E 002°39'0 0.1
2015-Jul-28 22:30N 51°26' E 002°39'0 0.1
2015-Jul-28 21:33N 51°26' E 002°39'0 0.0
2015-Jul-28 20:33N 51°26' E 002°39'0 0.0
2015-Jul-28 19:33N 51°26' E 002°39'0 0.0
2015-Jul-28 18:33N 51°26' E 002°39'0 0.0
2015-Jul-28 17:33N 51°26' E 002°39'0 0.0
2015-Jul-28 16:33N 51°26' E 002°39'0 0.1
2015-Jul-28 15:33N 51°26' E 002°39'0 0.1
2015-Jul-28 14:33N 51°26' E 002°39'0 0.0
2015-Jul-28 13:33N 51°26' E 002°39'0 0.0
2015-Jul-28 12:33N 51°26' E 002°39'0 0.1
2015-Jul-28 11:33N 51°26' E 002°39'0 0.0
2015-Jul-28 10:33N 51°26' E 002°39'0 0.0
2015-Jul-28 09:33N 51°26' E 002°39'0 0.1
2015-Jul-28 08:33N 51°26' E 002°39'0 0.0
2015-Jul-28 07:27N 51°26' E 002°39'0 0.0
2015-Jul-28 06:33N 51°26' E 002°39'0 0.0
2015-Jul-28 05:33N 51°26' E 002°39'2 2.4
2015-Jul-28 04:34N 51°25' E 002°43'1211.8
2015-Jul-28 03:34N 51°21' E 002°25'1212.4
2015-Jul-28 02:33N 51°20' E 002°06'1313.1
2015-Jul-28 01:34N 51°30' E 001°52'1312.7
2015-Jul-28 00:34N 51°42' E 001°44'9 9.0
2015-Jul-27 23:34N 51°50' E 001°37'1615.6
2015-Jul-27 22:33N 51°38' E 001°21'1616.4
2015-Jul-27 21:33N 51°29' E 000°59'1515.1
2015-Jul-27 20:33N 51°30' E 000°35'3 3.0
2015-Jul-27 19:34N 51°30' E 000°30'0 0.0
2015-Jul-27 18:34N 51°30' E 000°30'0 0.0
2015-Jul-27 17:33N 51°30' E 000°30'0 0.0
2015-Jul-27 16:34N 51°30' E 000°30'0 0.0
2015-Jul-27 15:33N 51°30' E 000°30'0 0.0
2015-Jul-27 14:32N 51°30' E 000°30'0 0.0
2015-Jul-27 13:32N 51°30' E 000°30'0 0.0
2015-Jul-27 12:33N 51°30' E 000°30'0 0.0
2015-Jul-27 11:33N 51°30' E 000°30'0 0.0
2015-Jul-27 10:33N 51°30' E 000°30'0 0.0
2015-Jul-27 09:33N 51°30' E 000°30'0 0.0
2015-Jul-27 08:33N 51°30' E 000°30'0 0.0
2015-Jul-27 07:32N 51°30' E 000°30'0 0.0
2015-Jul-27 06:32N 51°30' E 000°30'0 0.0
2015-Jul-27 05:33N 51°30' E 000°30'2 1.5
2015-Jul-27 04:34N 51°30' E 000°33'1212.1
2015-Jul-27 03:33N 51°30' E 000°52'1515.2
2015-Jul-27 02:33N 51°35' E 001°15'1515.2
2015-Jul-27 01:34N 51°46' E 001°32'10 9.9
2015-Jul-27 00:33N 51°53' E 001°43'1413.9
2015-Jul-26 23:34N 52°05' E 001°55'1413.8
2015-Jul-26 22:33N 52°14' E 002°12'7712.5
2015-Jul-26 16:22N 52°57' E 003°57'1012.6
2015-Jul-26 15:33N 53°04' E 004°10'1211.7
2015-Jul-26 14:33N 53°11' E 004°25'1311.4
2015-Jul-26 13:24N 53°24' E 004°33'1110.3
2015-Jul-26 12:22N 53°31' E 004°47'911.3
2015-Jul-26 11:33N 53°34' E 005°01'1212.0
2015-Jul-26 10:33N 53°38' E 005°20'1312.7
2015-Jul-26 09:33N 53°42' E 005°40'1312.9
2015-Jul-26 08:33N 53°46' E 006°01'3415.1
2015-Jul-26 06:17N 53°56' E 006°57'5 7.3
2015-Jul-26 05:33N 53°57' E 007°05'1212.1
2015-Jul-26 04:33N 54°00' E 007°25'1211.9
2015-Jul-26 03:34N 54°02' E 007°45'1212.0
2015-Jul-26 02:33N 54°01' E 008°06'1212.6
2015-Jul-26 01:34N 53°59' E 008°27'1414.2
2015-Jul-26 00:33N 53°51' E 008°47'1514.5
2015-Jul-25 23:33N 53°53' E 009°11'1111.3
2015-Jul-25 22:34N 53°45' E 009°24'1110.9
2015-Jul-25 21:33N 53°36' E 009°35'10 9.8
2015-Jul-25 20:33N 53°33' E 009°51'3 2.8
2015-Jul-25 19:31N 53°32' E 009°55'0 0.0
2015-Jul-25 18:33N 53°32' E 009°55'0 0.0
2015-Jul-25 17:31N 53°32' E 009°55'0 0.0
2015-Jul-25 16:33N 53°32' E 009°55'0 0.0
2015-Jul-25 15:33N 53°32' E 009°55'0 0.0
2015-Jul-25 14:33N 53°32' E 009°55'0 0.0
2015-Jul-25 13:33N 53°32' E 009°55'0 0.0
2015-Jul-25 12:33N 53°32' E 009°55'0 0.0
2015-Jul-25 11:33N 53°32' E 009°55'0 0.0
2015-Jul-25 10:32N 53°32' E 009°55'0 0.0
2015-Jul-25 09:32N 53°32' E 009°55'0 0.0
2015-Jul-25 08:32N 53°32' E 009°55'0 0.0
2015-Jul-25 07:32N 53°32' E 009°55'0 0.0
2015-Jul-25 06:28N 53°32' E 009°55'0 0.0
2015-Jul-25 05:31N 53°32' E 009°55'0 0.0
2015-Jul-25 04:33N 53°32' E 009°55'0 0.0
2015-Jul-25 03:33N 53°32' E 009°55'0 0.0
2015-Jul-25 02:33N 53°32' E 009°55'0 0.0
2015-Jul-25 01:32N 53°32' E 009°55'0 0.0
2015-Jul-25 00:34N 53°32' E 009°55'0 0.0
2015-Jul-24 23:33N 53°32' E 009°55'0 0.0
2015-Jul-24 22:33N 53°32' E 009°55'0 0.0
2015-Jul-24 21:32N 53°32' E 009°55'0 0.0
2015-Jul-24 20:33N 53°32' E 009°55'0 0.0
2015-Jul-24 19:33N 53°32' E 009°55'0 0.0
2015-Jul-24 18:32N 53°32' E 009°55'0 0.0
2015-Jul-24 17:33N 53°32' E 009°55'0 0.0
2015-Jul-24 16:31N 53°32' E 009°55'0 0.0
2015-Jul-24 15:33N 53°32' E 009°55'0 0.0
2015-Jul-24 14:31N 53°32' E 009°55'0 0.0
2015-Jul-24 13:32N 53°32' E 009°55'0 0.0
2015-Jul-24 12:30N 53°32' E 009°55'0 0.0
2015-Jul-24 11:33N 53°32' E 009°55'0 0.0
2015-Jul-24 10:32N 53°32' E 009°55'0 0.0
2015-Jul-24 09:32N 53°32' E 009°55'0 0.0
2015-Jul-24 08:33N 53°32' E 009°55'1 1.2
2015-Jul-24 07:33N 53°33' E 009°57'1 0.6
2015-Jul-24 06:31N 53°33' E 009°58'0 0.0
2015-Jul-24 05:31N 53°33' E 009°58'0 0.0
2015-Jul-24 04:31N 53°33' E 009°58'0 0.0
2015-Jul-24 03:31N 53°33' E 009°58'0 0.0
2015-Jul-24 02:31N 53°33' E 009°58'0 0.0
2015-Jul-24 01:31N 53°33' E 009°58'0 0.0
2015-Jul-24 00:31N 53°33' E 009°58'0 0.0
2015-Jul-23 23:33N 53°33' E 009°58'0 0.0
2015-Jul-23 22:32N 53°33' E 009°58'0 0.0
2015-Jul-23 21:32N 53°33' E 009°58'0 0.0
2015-Jul-23 20:32N 53°33' E 009°58'0 0.0
2015-Jul-23 19:32N 53°33' E 009°58'0 0.0
2015-Jul-23 18:32N 53°33' E 009°58'0 0.0
2015-Jul-23 17:32N 53°33' E 009°58'0 0.0
2015-Jul-23 16:32N 53°33' E 009°58'0 0.0
2015-Jul-23 15:32N 53°33' E 009°58'0 0.0
2015-Jul-23 14:32N 53°33' E 009°58'0 0.0
2015-Jul-23 13:32N 53°33' E 009°58'0 0.0
2015-Jul-23 12:32N 53°33' E 009°58'0 0.0
2015-Jul-23 11:32N 53°33' E 009°58'0 0.0
2015-Jul-23 10:32N 53°33' E 009°58'0 0.0
2015-Jul-23 09:32N 53°33' E 009°58'0 0.0
2015-Jul-23 08:32N 53°33' E 009°58'0 0.0
2015-Jul-23 07:32N 53°33' E 009°58'0 0.0
2015-Jul-23 06:32N 53°33' E 009°58'0 0.0
2015-Jul-23 05:32N 53°33' E 009°58'0 0.0
2015-Jul-23 04:32N 53°33' E 009°58'0 0.0
2015-Jul-23 03:33N 53°33' E 009°58'0 0.0
2015-Jul-23 02:29N 53°33' E 009°58'0 0.0
2015-Jul-23 01:32N 53°33' E 009°58'0 0.0
2015-Jul-23 00:32N 53°33' E 009°58'0 0.0
2015-Jul-22 23:32N 53°33' E 009°58'0 0.0
2015-Jul-22 22:32N 53°33' E 009°58'0 0.0
2015-Jul-22 21:32N 53°33' E 009°58'0 0.0
2015-Jul-22 20:32N 53°33' E 009°58'0 0.0
2015-Jul-22 19:32N 53°33' E 009°58'0 0.0
2015-Jul-22 18:32N 53°33' E 009°58'0 0.0
2015-Jul-22 17:32N 53°33' E 009°58'0 0.0
2015-Jul-22 16:32N 53°33' E 009°58'0 0.0
2015-Jul-22 15:26N 53°33' E 009°58'0 0.0
2015-Jul-22 14:32N 53°33' E 009°58'0 0.0
2015-Jul-22 13:32N 53°33' E 009°58'0 0.0
2015-Jul-22 12:32N 53°33' E 009°58'0 0.0
2015-Jul-22 11:32N 53°33' E 009°58'0 0.0
2015-Jul-22 10:32N 53°33' E 009°58'0 0.0
2015-Jul-22 09:32N 53°33' E 009°58'0 0.0
2015-Jul-22 08:32N 53°33' E 009°58'0 0.0
2015-Jul-22 07:26N 53°33' E 009°58'0 0.0
2015-Jul-22 06:32N 53°33' E 009°58'0 0.0
2015-Jul-22 05:32N 53°33' E 009°58'0 0.0
2015-Jul-22 04:32N 53°33' E 009°58'0 0.0
2015-Jul-22 03:32N 53°33' E 009°58'0 0.0
2015-Jul-22 02:32N 53°33' E 009°58'0 0.0
2015-Jul-22 01:32N 53°33' E 009°58'0 0.0
2015-Jul-22 00:32N 53°33' E 009°58'0 0.0
2015-Jul-21 23:32N 53°33' E 009°58'0 0.0
2015-Jul-21 22:32N 53°33' E 009°58'0 0.0
2015-Jul-21 21:32N 53°33' E 009°58'0 0.0
2015-Jul-21 20:32N 53°33' E 009°58'0 0.0
2015-Jul-21 19:32N 53°33' E 009°58'0 0.0
2015-Jul-21 18:29N 53°33' E 009°58'0 0.0
2015-Jul-21 17:32N 53°33' E 009°58'0 0.0
2015-Jul-21 16:32N 53°33' E 009°58'0 0.0
2015-Jul-21 15:32N 53°33' E 009°58'0 0.0
2015-Jul-21 14:32N 53°33' E 009°58'0 0.0
2015-Jul-21 13:32N 53°33' E 009°58'0 0.0
2015-Jul-21 12:26N 53°33' E 009°58'0 0.0
2015-Jul-21 11:32N 53°33' E 009°58'0 0.0
2015-Jul-21 10:29N 53°33' E 009°58'0 0.0
2015-Jul-21 09:32N 53°33' E 009°58'0 0.0
2015-Jul-21 08:33N 53°33' E 009°58'0 0.0
2015-Jul-21 07:33N 53°33' E 009°58'0 0.0
2015-Jul-21 06:32N 53°33' E 009°58'0 0.0
2015-Jul-21 05:32N 53°33' E 009°58'0 0.0
2015-Jul-21 04:33N 53°33' E 009°58'0 0.0
2015-Jul-21 03:32N 53°33' E 009°58'0 0.0
2015-Jul-21 02:33N 53°33' E 009°58'0 0.0
2015-Jul-21 00:32N 53°33' E 009°58'0 0.0
2015-Jul-20 23:32N 53°33' E 009°58'0 0.0
2015-Jul-20 22:32N 53°33' E 009°58'0 0.0
2015-Jul-20 21:32N 53°33' E 009°58'0 0.0
2015-Jul-20 20:32N 53°33' E 009°58'0 0.0
2015-Jul-20 19:29N 53°33' E 009°58'0 0.0
2015-Jul-20 18:32N 53°33' E 009°58'0 0.0
2015-Jul-20 17:32N 53°33' E 009°58'0 0.0
2015-Jul-20 16:29N 53°33' E 009°58'0 0.0
2015-Jul-20 15:32N 53°33' E 009°58'0 0.0
2015-Jul-20 14:32N 53°33' E 009°58'0 0.0
2015-Jul-20 13:32N 53°33' E 009°58'0 0.0
2015-Jul-20 12:32N 53°33' E 009°58'0 0.0
2015-Jul-20 11:32N 53°33' E 009°58'0 0.0
2015-Jul-20 10:32N 53°33' E 009°58'0 0.0
2015-Jul-20 09:32N 53°33' E 009°58'0 0.0
2015-Jul-20 08:29N 53°33' E 009°58'0 0.0
2015-Jul-20 07:32N 53°33' E 009°58'0 0.0
2015-Jul-20 06:29N 53°33' E 009°58'0 0.0
2015-Jul-20 05:29N 53°33' E 009°58'0 0.0
2015-Jul-20 04:32N 53°33' E 009°58'0 0.0
2015-Jul-20 03:32N 53°33' E 009°58'0 0.0
2015-Jul-20 02:32N 53°33' E 009°58'0 0.0
2015-Jul-20 01:29N 53°33' E 009°58'0 0.0
2015-Jul-20 00:32N 53°33' E 009°58'0 0.0
2015-Jul-19 23:32N 53°33' E 009°58'0 0.0
2015-Jul-19 22:32N 53°33' E 009°58'0 0.0
2015-Jul-19 21:32N 53°33' E 009°58'0 0.0
2015-Jul-19 20:32N 53°33' E 009°58'0 0.0
2015-Jul-19 19:32N 53°33' E 009°58'0 0.0
2015-Jul-19 18:32N 53°33' E 009°58'0 0.0
2015-Jul-19 17:32N 53°33' E 009°58'0 0.0
2015-Jul-19 16:32N 53°33' E 009°58'0 0.0
2015-Jul-19 15:26N 53°33' E 009°58'0 0.0
2015-Jul-19 14:32N 53°33' E 009°58'0 0.0
2015-Jul-19 13:32N 53°33' E 009°58'0 0.0
2015-Jul-19 12:29N 53°33' E 009°58'0 0.0
2015-Jul-19 11:29N 53°33' E 009°58'0 0.0
2015-Jul-19 10:29N 53°33' E 009°58'0 0.0
2015-Jul-19 09:32N 53°33' E 009°58'0 0.0
2015-Jul-19 08:32N 53°33' E 009°58'0 0.0
2015-Jul-19 07:32N 53°33' E 009°58'0 0.0
2015-Jul-19 06:29N 53°33' E 009°58'0 0.0
2015-Jul-19 05:32N 53°33' E 009°58'0 0.0
2015-Jul-19 04:32N 53°33' E 009°58'  
Track history (hours):
 
Tides and Currents Weather Stations Pressure Air Temp Water Temp Dewpoint Dewpoint Depression Visibility Wind Speed Wind Dir Waves Ship Positions

Maersk Dayton

Last reported at 2015-Jul-29 00:33 UTC. Time now 2015-Jul-29 00:38 UTC.
Position N 51°26' E 002°39'.

Length 281 m; beam 32.2 m; draft 12.5 m.

Type: Cargo ship. MMSI: 218024000.

Date/timePositionNaut miles runAvg speedWind from/ knotsBaromVisibWave heightAir tempDewpointWater temp
2015-Jul-29 00:33N 51°26' E 002°39'0 0.0
2015-Jul-28 23:33N 51°26' E 002°39'0 0.1
2015-Jul-28 22:30N 51°26' E 002°39'0 0.1
2015-Jul-28 21:33N 51°26' E 002°39'0 0.0
2015-Jul-28 20:33N 51°26' E 002°39'0 0.0
2015-Jul-28 19:33N 51°26' E 002°39'0 0.0
2015-Jul-28 18:33N 51°26' E 002°39'0 0.0
2015-Jul-28 17:33N 51°26' E 002°39'0 0.0
2015-Jul-28 16:33N 51°26' E 002°39'0 0.1
2015-Jul-28 15:33N 51°26' E 002°39'0 0.1
2015-Jul-28 14:33N 51°26' E 002°39'0 0.0
2015-Jul-28 13:33N 51°26' E 002°39'0 0.0
2015-Jul-28 12:33N 51°26' E 002°39'0 0.1
2015-Jul-28 11:33N 51°26' E 002°39'0 0.0
2015-Jul-28 10:33N 51°26' E 002°39'0 0.0
2015-Jul-28 09:33N 51°26' E 002°39'0 0.1
2015-Jul-28 08:33N 51°26' E 002°39'0 0.0
2015-Jul-28 07:27N 51°26' E 002°39'0 0.0
2015-Jul-28 06:33N 51°26' E 002°39'0 0.0
2015-Jul-28 05:33N 51°26' E 002°39'2 2.4
2015-Jul-28 04:34N 51°25' E 002°43'1211.8
2015-Jul-28 03:34N 51°21' E 002°25'1212.4
2015-Jul-28 02:33N 51°20' E 002°06'1313.1
2015-Jul-28 01:34N 51°30' E 001°52'1312.7
2015-Jul-28 00:34N 51°42' E 001°44'9 9.0
2015-Jul-27 23:34N 51°50' E 001°37'1615.6
2015-Jul-27 22:33N 51°38' E 001°21'1616.4
2015-Jul-27 21:33N 51°29' E 000°59'1515.1
2015-Jul-27 20:33N 51°30' E 000°35'3 3.0
2015-Jul-27 19:34N 51°30' E 000°30'0 0.0
2015-Jul-27 18:34N 51°30' E 000°30'0 0.0
2015-Jul-27 17:33N 51°30' E 000°30'0 0.0
2015-Jul-27 16:34N 51°30' E 000°30'0 0.0
2015-Jul-27 15:33N 51°30' E 000°30'0 0.0
2015-Jul-27 14:32N 51°30' E 000°30'0 0.0
2015-Jul-27 13:32N 51°30' E 000°30'0 0.0
2015-Jul-27 12:33N 51°30' E 000°30'0 0.0
2015-Jul-27 11:33N 51°30' E 000°30'0 0.0
2015-Jul-27 10:33N 51°30' E 000°30'0 0.0
2015-Jul-27 09:33N 51°30' E 000°30'0 0.0
2015-Jul-27 08:33N 51°30' E 000°30'0 0.0
2015-Jul-27 07:32N 51°30' E 000°30'0 0.0
2015-Jul-27 06:32N 51°30' E 000°30'0 0.0
2015-Jul-27 05:33N 51°30' E 000°30'2 1.5
2015-Jul-27 04:34N 51°30' E 000°33'1212.1
2015-Jul-27 03:33N 51°30' E 000°52'1515.2
2015-Jul-27 02:33N 51°35' E 001°15'1515.2
2015-Jul-27 01:34N 51°46' E 001°32'10 9.9
2015-Jul-27 00:33N 51°53' E 001°43'1413.9
2015-Jul-26 23:34N 52°05' E 001°55'1413.8
2015-Jul-26 22:33N 52°14' E 002°12'7712.5
2015-Jul-26 16:22N 52°57' E 003°57'1012.6
2015-Jul-26 15:33N 53°04' E 004°10'1211.7
2015-Jul-26 14:33N 53°11' E 004°25'1311.4
2015-Jul-26 13:24N 53°24' E 004°33'1110.3
2015-Jul-26 12:22N 53°31' E 004°47'911.3
2015-Jul-26 11:33N 53°34' E 005°01'1212.0
2015-Jul-26 10:33N 53°38' E 005°20'1312.7
2015-Jul-26 09:33N 53°42' E 005°40'1312.9
2015-Jul-26 08:33N 53°46' E 006°01'3415.1
2015-Jul-26 06:17N 53°56' E 006°57'5 7.3
2015-Jul-26 05:33N 53°57' E 007°05'1212.1
2015-Jul-26 04:33N 54°00' E 007°25'1211.9
2015-Jul-26 03:34N 54°02' E 007°45'1212.0
2015-Jul-26 02:33N 54°01' E 008°06'1212.6
2015-Jul-26 01:34N 53°59' E 008°27'1414.2
2015-Jul-26 00:33N 53°51' E 008°47'1514.5
2015-Jul-25 23:33N 53°53' E 009°11'1111.3
2015-Jul-25 22:34N 53°45' E 009°24'1110.9
2015-Jul-25 21:33N 53°36' E 009°35'10 9.8
2015-Jul-25 20:33N 53°33' E 009°51'3 2.8
2015-Jul-25 19:31N 53°32' E 009°55'0 0.0
2015-Jul-25 18:33N 53°32' E 009°55'0 0.0
2015-Jul-25 17:31N 53°32' E 009°55'0 0.0
2015-Jul-25 16:33N 53°32' E 009°55'0 0.0
2015-Jul-25 15:33N 53°32' E 009°55'0 0.0
2015-Jul-25 14:33N 53°32' E 009°55'0 0.0
2015-Jul-25 13:33N 53°32' E 009°55'0 0.0
2015-Jul-25 12:33N 53°32' E 009°55'0 0.0
2015-Jul-25 11:33N 53°32' E 009°55'0 0.0
2015-Jul-25 10:32N 53°32' E 009°55'0 0.0
2015-Jul-25 09:32N 53°32' E 009°55'0 0.0
2015-Jul-25 08:32N 53°32' E 009°55'0 0.0
2015-Jul-25 07:32N 53°32' E 009°55'0 0.0
2015-Jul-25 06:28N 53°32' E 009°55'0 0.0
2015-Jul-25 05:31N 53°32' E 009°55'0 0.0
2015-Jul-25 04:33N 53°32' E 009°55'0 0.0
2015-Jul-25 03:33N 53°32' E 009°55'0 0.0
2015-Jul-25 02:33N 53°32' E 009°55'0 0.0
2015-Jul-25 01:32N 53°32' E 009°55'0 0.0
2015-Jul-25 00:34N 53°32' E 009°55'0 0.0
2015-Jul-24 23:33N 53°32' E 009°55'0 0.0
2015-Jul-24 22:33N 53°32' E 009°55'0 0.0
2015-Jul-24 21:32N 53°32' E 009°55'0 0.0
2015-Jul-24 20:33N 53°32' E 009°55'0 0.0
2015-Jul-24 19:33N 53°32' E 009°55'0 0.0
2015-Jul-24 18:32N 53°32' E 009°55'0 0.0
2015-Jul-24 17:33N 53°32' E 009°55'0 0.0
2015-Jul-24 16:31N 53°32' E 009°55'0 0.0
2015-Jul-24 15:33N 53°32' E 009°55'0 0.0
2015-Jul-24 14:31N 53°32' E 009°55'0 0.0
2015-Jul-24 13:32N 53°32' E 009°55'0 0.0
2015-Jul-24 12:30N 53°32' E 009°55'0 0.0
2015-Jul-24 11:33N 53°32' E 009°55'0 0.0
2015-Jul-24 10:32N 53°32' E 009°55'0 0.0
2015-Jul-24 09:32N 53°32' E 009°55'0 0.0
2015-Jul-24 08:33N 53°32' E 009°55'1 1.2
2015-Jul-24 07:33N 53°33' E 009°57'1 0.6
2015-Jul-24 06:31N 53°33' E 009°58'0 0.0
2015-Jul-24 05:31N 53°33' E 009°58'0 0.0
2015-Jul-24 04:31N 53°33' E 009°58'0 0.0
2015-Jul-24 03:31N 53°33' E 009°58'0 0.0
2015-Jul-24 02:31N 53°33' E 009°58'0 0.0
2015-Jul-24 01:31N 53°33' E 009°58'0 0.0
2015-Jul-24 00:31N 53°33' E 009°58'0 0.0
2015-Jul-23 23:33N 53°33' E 009°58'0 0.0
2015-Jul-23 22:32N 53°33' E 009°58'0 0.0
2015-Jul-23 21:32N 53°33' E 009°58'0 0.0
2015-Jul-23 20:32N 53°33' E 009°58'0 0.0
2015-Jul-23 19:32N 53°33' E 009°58'0 0.0
2015-Jul-23 18:32N 53°33' E 009°58'0 0.0
2015-Jul-23 17:32N 53°33' E 009°58'0 0.0
2015-Jul-23 16:32N 53°33' E 009°58'0 0.0
2015-Jul-23 15:32N 53°33' E 009°58'0 0.0
2015-Jul-23 14:32N 53°33' E 009°58'0 0.0
2015-Jul-23 13:32N 53°33' E 009°58'0 0.0
2015-Jul-23 12:32N 53°33' E 009°58'0 0.0
2015-Jul-23 11:32N 53°33' E 009°58'0 0.0
2015-Jul-23 10:32N 53°33' E 009°58'0 0.0
2015-Jul-23 09:32N 53°33' E 009°58'0 0.0
2015-Jul-23 08:32N 53°33' E 009°58'0 0.0
2015-Jul-23 07:32N 53°33' E 009°58'0 0.0
2015-Jul-23 06:32N 53°33' E 009°58'0 0.0
2015-Jul-23 05:32N 53°33' E 009°58'0 0.0
2015-Jul-23 04:32N 53°33' E 009°58'0 0.0
2015-Jul-23 03:33N 53°33' E 009°58'0 0.0
2015-Jul-23 02:29N 53°33' E 009°58'0 0.0
2015-Jul-23 01:32N 53°33' E 009°58'0 0.0
2015-Jul-23 00:32N 53°33' E 009°58'0 0.0
2015-Jul-22 23:32N 53°33' E 009°58'0 0.0
2015-Jul-22 22:32N 53°33' E 009°58'0 0.0
2015-Jul-22 21:32N 53°33' E 009°58'0 0.0
2015-Jul-22 20:32N 53°33' E 009°58'0 0.0
2015-Jul-22 19:32N 53°33' E 009°58'0 0.0
2015-Jul-22 18:32N 53°33' E 009°58'0 0.0
2015-Jul-22 17:32N 53°33' E 009°58'0 0.0
2015-Jul-22 16:32N 53°33' E 009°58'0 0.0
2015-Jul-22 15:26N 53°33' E 009°58'0 0.0
2015-Jul-22 14:32N 53°33' E 009°58'0 0.0
2015-Jul-22 13:32N 53°33' E 009°58'0 0.0
2015-Jul-22 12:32N 53°33' E 009°58'0 0.0
2015-Jul-22 11:32N 53°33' E 009°58'0 0.0
2015-Jul-22 10:32N 53°33' E 009°58'0 0.0
2015-Jul-22 09:32N 53°33' E 009°58'0 0.0
2015-Jul-22 08:32N 53°33' E 009°58'0 0.0
2015-Jul-22 07:26N 53°33' E 009°58'0 0.0
2015-Jul-22 06:32N 53°33' E 009°58'0 0.0
2015-Jul-22 05:32N 53°33' E 009°58'0 0.0
2015-Jul-22 04:32N 53°33' E 009°58'0 0.0
2015-Jul-22 03:32N 53°33' E 009°58'0 0.0
2015-Jul-22 02:32N 53°33' E 009°58'0 0.0
2015-Jul-22 01:32N 53°33' E 009°58'0 0.0
2015-Jul-22 00:32N 53°33' E 009°58'0 0.0
2015-Jul-21 23:32N 53°33' E 009°58'0 0.0
2015-Jul-21 22:32N 53°33' E 009°58'0 0.0
2015-Jul-21 21:32N 53°33' E 009°58'0 0.0
2015-Jul-21 20:32N 53°33' E 009°58'0 0.0
2015-Jul-21 19:32N 53°33' E 009°58'0 0.0
2015-Jul-21 18:29N 53°33' E 009°58'0 0.0
2015-Jul-21 17:32N 53°33' E 009°58'0 0.0
2015-Jul-21 16:32N 53°33' E 009°58'0 0.0
2015-Jul-21 15:32N 53°33' E 009°58'0 0.0
2015-Jul-21 14:32N 53°33' E 009°58'0 0.0
2015-Jul-21 13:32N 53°33' E 009°58'0 0.0
2015-Jul-21 12:26N 53°33' E 009°58'0 0.0
2015-Jul-21 11:32N 53°33' E 009°58'0 0.0
2015-Jul-21 10:29N 53°33' E 009°58'0 0.0
2015-Jul-21 09:32N 53°33' E 009°58'0 0.0
2015-Jul-21 08:33N 53°33' E 009°58'0 0.0
2015-Jul-21 07:33N 53°33' E 009°58'0 0.0
2015-Jul-21 06:32N 53°33' E 009°58'0 0.0
2015-Jul-21 05:32N 53°33' E 009°58'0 0.0
2015-Jul-21 04:33N 53°33' E 009°58'0 0.0
2015-Jul-21 03:32N 53°33' E 009°58'0 0.0
2015-Jul-21 02:33N 53°33' E 009°58'0 0.0
2015-Jul-21 00:32N 53°33' E 009°58'0 0.0
2015-Jul-20 23:32N 53°33' E 009°58'0 0.0
2015-Jul-20 22:32N 53°33' E 009°58'0 0.0
2015-Jul-20 21:32N 53°33' E 009°58'0 0.0
2015-Jul-20 20:32N 53°33' E 009°58'0 0.0
2015-Jul-20 19:29N 53°33' E 009°58'0 0.0
2015-Jul-20 18:32N 53°33' E 009°58'0 0.0
2015-Jul-20 17:32N 53°33' E 009°58'0 0.0
2015-Jul-20 16:29N 53°33' E 009°58'0 0.0
2015-Jul-20 15:32N 53°33' E 009°58'0 0.0
2015-Jul-20 14:32N 53°33' E 009°58'0 0.0
2015-Jul-20 13:32N 53°33' E 009°58'0 0.0
2015-Jul-20 12:32N 53°33' E 009°58'0 0.0
2015-Jul-20 11:32N 53°33' E 009°58'0 0.0
2015-Jul-20 10:32N 53°33' E 009°58'0 0.0
2015-Jul-20 09:32N 53°33' E 009°58'0 0.0
2015-Jul-20 08:29N 53°33' E 009°58'0 0.0
2015-Jul-20 07:32N 53°33' E 009°58'0 0.0
2015-Jul-20 06:29N 53°33' E 009°58'0 0.0
2015-Jul-20 05:29N 53°33' E 009°58'0 0.0
2015-Jul-20 04:32N 53°33' E 009°58'0 0.0
2015-Jul-20 03:32N 53°33' E 009°58'0 0.0
2015-Jul-20 02:32N 53°33' E 009°58'0 0.0
2015-Jul-20 01:29N 53°33' E 009°58'0 0.0
2015-Jul-20 00:32N 53°33' E 009°58'0 0.0
2015-Jul-19 23:32N 53°33' E 009°58'0 0.0
2015-Jul-19 22:32N 53°33' E 009°58'0 0.0
2015-Jul-19 21:32N 53°33' E 009°58'0 0.0
2015-Jul-19 20:32N 53°33' E 009°58'0 0.0
2015-Jul-19 19:32N 53°33' E 009°58'0 0.0
2015-Jul-19 18:32N 53°33' E 009°58'0 0.0
2015-Jul-19 17:32N 53°33' E 009°58'0 0.0
2015-Jul-19 16:32N 53°33' E 009°58'0 0.0
2015-Jul-19 15:26N 53°33' E 009°58'0 0.0
2015-Jul-19 14:32N 53°33' E 009°58'0 0.0
2015-Jul-19 13:32N 53°33' E 009°58'0 0.0
2015-Jul-19 12:29N 53°33' E 009°58'0 0.0
2015-Jul-19 11:29N 53°33' E 009°58'0 0.0
2015-Jul-19 10:29N 53°33' E 009°58'0 0.0
2015-Jul-19 09:32N 53°33' E 009°58'0 0.0
2015-Jul-19 08:32N 53°33' E 009°58'0 0.0
2015-Jul-19 07:32N 53°33' E 009°58'0 0.0
2015-Jul-19 06:29N 53°33' E 009°58'0 0.0
2015-Jul-19 05:32N 53°33' E 009°58'0 0.0
2015-Jul-19 04:32N 53°33' E 009°58'  

Dump ship's entire track history